Time;durP1;ratioP1;P1;durP2;ratioP2;P2;SDS_P1;SDS_P2;PMS_P1;PMS_P2;Temp;Humidity;BMP_temperature;BMP_pressure;BME280_temperature;BME280_humidity;BME280_pressure;Samples;Min_cycle;Max_cycle;Signal;HPM_P1;HPM_P2
2021/11/11 00:01:42;;;;;;;;;;;;;;;-139.48;100.00;61774.03;4977869;28;20519;-67
2021/11/11 00:04:26;;;;;;;45.83;23.30;;;;;;;-139.48;100.00;61774.03;4963000;28;19925;-70
2021/11/11 00:07:11;;;;;;;39.20;21.50;;;;;;;-139.48;100.00;61774.03;4962582;28;20137;-70
2021/11/11 00:09:57;;;;;;;43.38;22.83;;;;;;;-139.48;100.00;61774.03;4977082;28;20045;-68
2021/11/11 00:12:42;;;;;;;42.65;21.73;;;;;;;-139.48;100.00;61774.03;4976534;28;20046;-69
2021/11/11 00:15:26;;;;;;;37.15;21.45;;;;;;;-139.48;100.00;61774.03;4962638;28;20050;-68
2021/11/11 00:18:10;;;;;;;41.17;22.10;;;;;;;-139.48;100.00;61774.03;4976200;28;20105;-66
2021/11/11 00:20:54;;;;;;;39.83;23.48;;;;;;;-139.48;100.00;61774.03;4962722;28;20109;-67
2021/11/11 00:23:38;;;;;;;41.22;21.98;;;;;;;-139.48;100.00;61774.03;4976060;28;20564;-67
2021/11/11 00:26:22;;;;;;;40.47;22.13;;;;;;;-139.48;100.00;61774.03;4962292;28;20101;-67
2021/11/11 00:29:06;;;;;;;40.10;23.23;;;;;;;-139.48;100.00;61774.03;4976305;28;20050;-67
2021/11/11 00:31:50;;;;;;;;;;;;;;;-139.48;100.00;61774.03;4976471;28;20058;-67
2021/11/11 00:34:34;;;;;;;42.42;22.80;;;;;;;-139.48;100.00;61774.03;4975797;28;19937;-67
2021/11/11 00:37:19;;;;;;;;;;;;;;;-139.48;100.00;61774.03;4962532;28;20057;-67
2021/11/11 00:40:04;;;;;;;37.78;21.63;;;;;;;-139.48;100.00;61774.03;4975580;28;20398;-67
2021/11/11 00:42:48;;;;;;;42.33;22.48;;;;;;;-139.48;100.00;61774.03;4975829;28;20101;-66
2021/11/11 00:45:33;;;;;;;40.33;23.63;;;;;;;-139.48;100.00;61774.03;4961998;28;20627;-70
2021/11/11 00:48:18;;;;;;;42.08;22.67;;;;;;;-139.48;100.00;61774.03;4975685;28;20069;-67
2021/11/11 00:51:02;;;;;;;44.15;23.45;;;;;;;-139.48;100.00;61774.03;4962152;28;20550;-68
2021/11/11 00:53:46;;;;;;;38.58;21.48;;;;;;;-139.48;100.00;61774.03;4975963;28;20070;-70
2021/11/11 00:56:30;;;;;;;43.08;22.67;;;;;;;-139.48;100.00;61774.03;4975516;28;20559;-69
2021/11/11 00:59:14;;;;;;;40.60;21.92;;;;;;;-139.48;100.00;61774.03;4961647;28;20082;-69
2021/11/11 01:01:57;;;;;;;39.58;22.60;;;;;;;-139.48;100.00;61774.03;4961849;28;20058;-69
2021/11/11 01:04:42;;;;;;;40.28;22.75;;;;;;;-139.48;100.00;61774.03;4975606;28;20444;-67
2021/11/11 01:07:26;;;;;;;37.88;21.08;;;;;;;-139.48;100.00;61774.03;4961862;28;20054;-69
2021/11/11 01:10:12;;;;;;;;;;;;;;;-139.48;100.00;61774.03;4975839;28;20588;-67
2021/11/11 01:12:57;;;;;;;35.03;19.77;;;;;;;-139.48;100.00;61774.03;4975223;28;19921;-70
2021/11/11 01:15:40;;;;;;;39.72;21.10;;;;;;;-139.48;100.00;61774.03;4975506;28;20102;-69
2021/11/11 01:18:24;;;;;;;;;;;;;;;-139.48;100.00;61774.03;4976489;28;20049;-67
2021/11/11 01:21:08;;;;;;;42.40;21.77;;;;;;;-139.48;100.00;61774.03;4975126;28;20283;-67
2021/11/11 01:23:54;;;;;;;39.05;21.27;;;;;;;-139.48;100.00;61774.03;4975103;28;20050;-68
2021/11/11 01:26:38;;;;;;;38.17;21.10;;;;;;;-139.48;100.00;61774.03;4976048;28;20058;-70
2021/11/11 01:29:22;;;;;;;38.90;21.20;;;;;;;-139.48;100.00;61774.03;4974926;28;20141;-68
2021/11/11 01:32:06;;;;;;;36.78;19.88;;;;;;;-139.48;100.00;61774.03;4974974;28;20045;-69
2021/11/11 01:34:51;;;;;;;41.58;21.25;;;;;;;-139.48;100.00;61774.03;4974921;28;20081;-68
2021/11/11 01:37:37;;;;;;;34.65;19.27;;;;;;;-139.48;100.00;61774.03;4975836;28;20572;-69
2021/11/11 01:40:21;;;;;;;40.67;21.63;;;;;;;-139.48;100.00;61774.03;4960209;28;20148;-69
2021/11/11 01:43:06;;;;;;;38.05;19.80;;;;;;;-139.48;100.00;61774.03;4974748;28;20045;-69
2021/11/11 01:45:50;;;;;;;38.13;20.02;;;;;;;-139.48;100.00;61774.03;4975814;28;20104;-69
2021/11/11 01:48:34;;;;;;;33.95;20.00;;;;;;;-139.48;100.00;61774.03;4960800;28;20097;-69
2021/11/11 01:51:19;;;;;;;39.97;20.83;;;;;;;-139.48;100.00;61774.03;4974632;28;20057;-67
2021/11/11 01:54:04;;;;;;;37.92;22.08;;;;;;;-139.48;100.00;61774.03;4974518;28;20138;-69
2021/11/11 01:56:48;;;;;;;38.95;22.13;;;;;;;-139.48;100.00;61774.03;4960671;28;20049;-69
2021/11/11 01:59:32;;;;;;;;;;;;;;;-139.48;100.00;61774.03;4974648;28;20082;-67
2021/11/11 02:02:24;;;;;;;34.65;19.17;;;;;;;-139.48;100.00;61774.03;4974151;28;19984;-69
2021/11/11 02:05:08;;;;;;;36.65;21.65;;;;;;;-139.48;100.00;61774.03;4974391;28;20050;-69
2021/11/11 02:07:53;;;;;;;39.65;21.15;;;;;;;-139.48;100.00;61774.03;4960665;28;20050;-68
2021/11/11 02:10:38;;;;;;;39.50;22.20;;;;;;;-139.48;100.00;61774.03;4974596;28;20052;-69
2021/11/11 02:13:22;;;;;;;42.03;20.48;;;;;;;-139.48;100.00;61774.03;4974030;28;20094;-69
2021/11/11 02:16:07;;;;;;;34.00;20.67;;;;;;;-139.48;100.00;61774.03;4974951;28;20101;-68
2021/11/11 02:18:51;;;;;;;35.50;20.55;;;;;;;-139.48;100.00;61774.03;4973814;28;20567;-69
2021/11/11 02:21:38;;;;;;;34.65;20.00;;;;;;;-139.48;100.00;61774.03;4974459;28;20057;-69
2021/11/11 02:24:23;;;;;;;37.72;21.02;;;;;;;-139.48;100.00;61774.03;4973928;28;20128;-69
2021/11/11 02:27:06;;;;;;;36.63;19.65;;;;;;;-139.48;100.00;61774.03;4973857;28;20053;-69
2021/11/11 02:29:50;;;;;;;36.15;19.08;;;;;;;-139.48;100.00;61774.03;4974728;28;20113;-69
2021/11/11 02:32:35;;;;;;;34.30;20.80;;;;;;;-139.48;100.00;61774.03;4975094;28;20514;-70
2021/11/11 02:35:21;;;;;;;41.42;21.35;;;;;;;-139.48;100.00;61774.03;4973997;28;20046;-69
2021/11/11 02:38:05;;;;;;;34.92;19.48;;;;;;;-139.48;100.00;61774.03;4973378;28;20078;-67
2021/11/11 02:40:49;;;;;;;36.10;20.02;;;;;;;-139.48;100.00;61774.03;5001221;23;20111;-71
2021/11/11 02:43:34;;;;;;;34.92;20.17;;;;;;;-139.48;100.00;61774.03;5004599;28;20042;-70
2021/11/11 02:46:18;;;;;;;;;;;;;;;-139.48;100.00;61774.03;5004886;28;20505;-70
2021/11/11 02:49:02;;;;;;;35.78;20.58;;;;;;;-139.48;100.00;61774.03;5004732;28;19924;-70
2021/11/11 02:51:46;;;;;;;37.58;20.15;;;;;;;-139.48;100.00;61774.03;5017010;28;20100;-70
2021/11/11 02:54:33;;;;;;;;;;;;;;;-139.48;100.00;61774.03;4999526;28;20414;-70
2021/11/11 02:57:22;;;;;;;30.17;17.33;;;;;;;-139.48;100.00;61774.03;4985128;28;19968;-70
2021/11/11 03:00:27;;;;;;;34.17;19.23;;;;;;;-139.48;100.00;61774.03;5013493;28;20145;-71
2021/11/11 03:03:10;;;;;;;36.35;19.70;;;;;;;-139.48;100.00;61774.03;5013566;28;20132;-70
2021/11/11 03:05:55;;;;;;;30.15;17.95;;;;;;;-139.48;100.00;61774.03;4985041;28;20187;-70
2021/11/11 03:08:39;;;;;;;40.47;21.02;;;;;;;-139.48;100.00;61774.03;5013560;28;20057;-70
2021/11/11 03:11:27;;;;;;;38.00;20.60;;;;;;;-139.48;100.00;61774.03;4998350;28;20100;-70
2021/11/11 03:14:10;;;;;;;36.90;19.65;;;;;;;-139.48;100.00;61774.03;4999259;28;20052;-70
2021/11/11 03:16:54;;;;;;;46.00;20.15;;;;;;;-139.48;100.00;61774.03;4998655;28;20415;-70
2021/11/11 03:19:40;;;;;;;54.10;20.77;;;;;;;-139.48;100.00;61774.03;4998703;28;20108;-70
2021/11/11 03:22:24;;;;;;;61.95;21.05;;;;;;;-139.48;100.00;61774.03;4984851;28;20112;-70
2021/11/11 03:25:09;;;;;;;82.63;24.38;;;;;;;-139.48;100.00;61774.03;4998639;28;20498;-70
2021/11/11 03:27:55;;;;;;;56.45;23.27;;;;;;;-139.48;100.00;61774.03;4985007;28;20107;-71
2021/11/11 03:30:39;;;;;;;50.55;22.05;;;;;;;-139.48;100.00;61774.03;4998489;28;20045;-71
2021/11/11 03:33:23;;;;;;;77.20;25.95;;;;;;;-139.48;100.00;61774.03;4998652;28;20117;-70
2021/11/11 03:36:07;;;;;;;71.88;24.65;;;;;;;-139.48;100.00;61774.03;5013511;28;20093;-70
2021/11/11 03:38:51;;;;;;;66.32;22.95;;;;;;;-139.48;100.00;61774.03;4998857;28;20451;-71
2021/11/11 03:41:38;;;;;;;45.38;23.92;;;;;;;-139.48;100.00;61774.03;4984332;28;20418;-70
2021/11/11 03:44:22;;;;;;;48.60;23.60;;;;;;;-139.48;100.00;61774.03;5013094;28;20045;-70
2021/11/11 03:47:07;;;;;;;47.65;23.48;;;;;;;-139.48;100.00;61774.03;4998486;28;20133;-70
2021/11/11 03:49:51;;;;;;;54.10;24.85;;;;;;;-139.48;100.00;61774.03;4998413;28;20104;-70
2021/11/11 03:52:34;;;;;;;;;;;;;;;-139.48;100.00;61774.03;4998535;28;20571;-70
2021/11/11 03:55:24;;;;;;;39.40;20.90;;;;;;;-139.48;100.00;61774.03;4984671;28;19920;-70
2021/11/11 03:58:14;;;;;;;46.13;22.88;;;;;;;-139.48;100.00;61774.03;4998864;28;20045;-70
2021/11/11 04:00:59;;;;;;;96.20;25.80;;;;;;;-139.48;100.00;61774.03;4999089;28;20060;-70
2021/11/11 04:03:43;;;;;;;53.60;24.02;;;;;;;-139.48;100.00;61774.03;5014366;28;20053;-70
2021/11/11 04:06:27;;;;;;;70.22;24.95;;;;;;;-139.48;100.00;61774.03;5001625;28;20513;-70
2021/11/11 04:09:10;;;;;;;85.32;24.67;;;;;;;-139.48;100.00;61774.03;5016600;28;20069;-70
2021/11/11 04:11:54;;;;;;;;;;;;;;;-139.48;100.00;61774.03;4988541;28;20067;-70
2021/11/11 04:14:39;;;;;;;43.28;21.42;;;;;;;-139.48;100.00;61774.03;5001770;28;19983;-70
2021/11/11 04:17:23;;;;;;;48.78;21.77;;;;;;;-139.48;100.00;61774.03;5001740;28;20099;-70
2021/11/11 04:20:09;;;;;;;40.90;21.73;;;;;;;-139.48;100.00;61774.03;5016279;28;20064;-71
2021/11/11 04:22:53;;;;;;;45.95;24.10;;;;;;;-139.48;100.00;61774.03;5001708;28;20104;-71
2021/11/11 04:28:32;;;;;;;65.93;24.92;;;;;;;-139.48;100.00;61774.03;5016550;28;20048;-70
2021/11/11 04:31:34;;;;;;;134.57;27.38;;;;;;;-139.48;100.00;61774.03;5001787;28;20046;-70
2021/11/11 04:34:20;;;;;;;102.28;27.98;;;;;;;-139.48;100.00;61774.03;5003784;28;20533;-72
2021/11/11 04:37:26;;;;;;;51.33;25.02;;;;;;;-139.48;100.00;61774.03;5001419;28;20049;-72
2021/11/11 05:03:47;;;;;;;71.40;29.13;;;;;;;-139.48;100.00;61774.03;5015291;28;20088;-73
2021/11/11 05:06:31;;;;;;;77.07;27.10;;;;;;;-139.48;100.00;61774.03;5015552;28;20099;-70
2021/11/11 05:09:15;;;;;;;64.05;27.70;;;;;;;-139.48;100.00;61774.03;5015532;28;20537;-70
2021/11/11 05:11:59;;;;;;;59.22;28.08;;;;;;;-139.48;100.00;61774.03;5000367;28;20149;-70
2021/11/11 05:14:43;;;;;;;135.98;30.20;;;;;;;-139.48;100.00;61774.03;5000461;28;20092;-70
2021/11/11 05:17:27;;;;;;;79.43;27.05;;;;;;;-139.48;100.00;61774.03;5000450;28;20044;-70
2021/11/11 05:20:12;;;;;;;61.00;26.58;;;;;;;-139.48;100.00;61774.03;5015256;28;20187;-70
2021/11/11 05:22:56;;;;;;;47.80;25.30;;;;;;;-139.48;100.00;61774.03;4986823;28;20177;-70
2021/11/11 05:25:40;;;;;;;51.22;27.23;;;;;;;-139.48;100.00;61774.03;5015384;28;20103;-70
2021/11/11 05:28:24;;;;;;;85.90;28.65;;;;;;;-139.48;100.00;61774.03;5015260;28;20048;-70
2021/11/11 05:31:08;;;;;;;89.13;27.00;;;;;;;-139.48;100.00;61774.03;4999878;28;20049;-70
2021/11/11 05:33:52;;;;;;;53.55;28.38;;;;;;;-139.48;100.00;61774.03;4986729;28;20121;-70
2021/11/11 05:36:36;;;;;;;55.15;26.77;;;;;;;-139.48;100.00;61774.03;4986641;28;20072;-71
2021/11/11 05:39:20;;;;;;;52.45;26.00;;;;;;;-139.48;100.00;61774.03;5000221;28;20044;-70
2021/11/11 05:42:04;;;;;;;53.75;26.20;;;;;;;-139.48;100.00;61774.03;4985713;28;20612;-71
2021/11/11 05:44:49;;;;;;;50.95;25.75;;;;;;;-139.48;100.00;61774.03;4986124;28;20053;-71
2021/11/11 05:47:32;;;;;;;55.63;25.60;;;;;;;-139.48;100.00;61774.03;5014846;28;20048;-70
2021/11/11 05:50:17;;;;;;;;;;;;;;;-139.48;100.00;61774.03;5000064;28;20100;-70
2021/11/11 05:53:01;;;;;;;83.70;35.08;;;;;;;-139.48;100.00;61774.03;4999649;28;19999;-70
2021/11/11 05:55:45;;;;;;;57.20;27.42;;;;;;;-139.48;100.00;61774.03;4986056;28;20135;-70
2021/11/11 05:58:29;;;;;;;54.95;27.15;;;;;;;-139.48;100.00;61774.03;4999666;28;20053;-70
2021/11/11 06:01:13;;;;;;;57.95;25.83;;;;;;;-139.48;100.00;61774.03;4999288;28;20092;-70
2021/11/11 06:03:57;;;;;;;61.35;27.55;;;;;;;-139.48;100.00;61774.03;4985870;28;20053;-70
2021/11/11 06:06:41;;;;;;;75.75;26.63;;;;;;;-139.48;100.00;61774.03;4999634;28;20143;-70
2021/11/11 06:09:24;;;;;;;67.78;27.45;;;;;;;-139.48;100.00;61774.03;4999283;28;20417;-70
2021/11/11 06:12:08;;;;;;;73.82;27.92;;;;;;;-139.48;100.00;61774.03;4985717;28;20463;-70
2021/11/11 06:14:53;;;;;;;83.22;31.77;;;;;;;-139.48;100.00;61774.03;4999671;28;20053;-70
2021/11/11 06:17:37;;;;;;;87.25;30.13;;;;;;;-139.48;100.00;61774.03;5014323;28;20549;-71
2021/11/11 06:20:30;;;;;;;70.07;29.02;;;;;;;-139.48;100.00;61774.03;4999483;28;20103;-71
2021/11/11 06:23:15;;;;;;;63.53;27.30;;;;;;;-139.48;100.00;61774.03;5000282;28;20044;-70
2021/11/11 06:25:59;;;;;;;76.82;30.92;;;;;;;-139.48;100.00;61774.03;4998910;28;20111;-70
2021/11/11 06:28:43;;;;;;;66.72;29.00;;;;;;;-139.48;100.00;61774.03;4985466;28;20554;-70
2021/11/11 06:31:26;;;;;;;;;;;;;;;-139.48;100.00;61774.03;4999273;28;20181;-70
2021/11/11 06:34:10;;;;;;;61.30;28.23;;;;;;;-139.48;100.00;61774.03;4985433;28;20059;-70
2021/11/11 06:36:54;;;;;;;76.72;30.10;;;;;;;-139.48;100.00;61774.03;4999161;28;20095;-70
2021/11/11 06:39:38;;;;;;;67.75;29.17;;;;;;;-139.48;100.00;61774.03;4985937;28;20594;-70
2021/11/11 06:42:22;;;;;;;;;;;;;;;-139.48;100.00;61774.03;4999416;28;20056;-70
2021/11/11 06:45:14;;;;;;;62.10;27.67;;;;;;;-139.48;100.00;61774.03;4998787;28;19968;-70
2021/11/11 06:47:58;;;;;;;83.53;29.02;;;;;;;-139.48;100.00;61774.03;4998981;28;20049;-70
2021/11/11 06:50:43;;;;;;;69.03;27.60;;;;;;;-139.48;100.00;61774.03;5013755;28;20057;-70
2021/11/11 06:53:27;;;;;;;68.60;27.38;;;;;;;-139.48;100.00;61774.03;4998662;28;20044;-71
2021/11/11 06:56:10;;;;;;;78.20;26.60;;;;;;;-139.48;100.00;61774.03;5013568;28;20137;-70
2021/11/11 06:58:54;;;;;;;64.32;28.52;;;;;;;-139.48;100.00;61774.03;5013795;28;20513;-70
2021/11/11 07:01:38;;;;;;;;;;;;;;;-139.48;100.00;61774.03;4985327;28;20569;-70
2021/11/11 07:04:25;;;;;;;60.78;26.55;;;;;;;-139.48;100.00;61774.03;4998530;28;20059;-71
2021/11/11 07:07:09;;;;;;;56.85;26.67;;;;;;;-139.48;100.00;61774.03;5013394;28;20415;-70
2021/11/11 07:09:53;;;;;;;71.45;28.33;;;;;;;-139.48;100.00;61774.03;5013632;28;20470;-70
2021/11/11 07:12:37;;;;;;;67.55;27.08;;;;;;;-139.48;100.00;61774.03;4985123;28;20076;-71
2021/11/11 07:15:21;;;;;;;61.10;27.20;;;;;;;-139.48;100.00;61774.03;4984884;28;20048;-71
2021/11/11 07:18:05;;;;;;;69.93;27.70;;;;;;;-139.48;100.00;61774.03;4998788;28;20457;-71
2021/11/11 07:20:51;;;;;;;57.63;27.67;;;;;;;-139.48;100.00;61774.03;4998703;28;20108;-71
2021/11/11 07:23:35;;;;;;;61.95;26.48;;;;;;;-139.48;100.00;61774.03;4998888;28;20080;-71
2021/11/11 07:26:19;;;;;;;63.90;26.10;;;;;;;-139.48;100.00;61774.03;4985115;28;20045;-70
2021/11/11 07:29:03;;;;;;;49.40;24.05;;;;;;;-139.48;100.00;61774.03;4998885;28;20132;-71
2021/11/11 07:31:51;;;;;;;56.42;27.75;;;;;;;-139.48;100.00;61774.03;5013574;28;20056;-71
2021/11/11 07:34:36;;;;;;;53.97;26.88;;;;;;;-139.48;100.00;61774.03;4999270;28;20180;-70
2021/11/11 07:37:20;;;;;;;54.92;26.77;;;;;;;-139.48;100.00;61774.03;4984928;28;20048;-71
2021/11/11 07:40:05;;;;;;;65.30;26.15;;;;;;;-139.48;100.00;61774.03;5002191;28;20104;-71
2021/11/11 07:42:50;;;;;;;60.47;24.48;;;;;;;-139.48;100.00;61774.03;5001979;28;20052;-70
2021/11/11 07:45:34;;;;;;;48.50;24.70;;;;;;;-139.48;100.00;61774.03;5002261;28;20112;-71
2021/11/11 07:48:18;;;;;;;58.60;25.90;;;;;;;-139.48;100.00;61774.03;5001872;28;20104;-70
2021/11/11 07:51:04;;;;;;;60.38;24.80;;;;;;;-139.48;100.00;61774.03;5002048;28;20045;-70
2021/11/11 07:53:48;;;;;;;46.05;24.65;;;;;;;-139.48;100.00;61774.03;4988554;28;20406;-70
2021/11/11 07:56:35;;;;;;;46.25;22.88;;;;;;;-139.48;100.00;61774.03;5016789;28;20108;-71
2021/11/11 07:59:18;;;;;;;49.20;22.38;;;;;;;-139.48;100.00;61774.03;5002029;28;20048;-70
2021/11/11 08:02:03;;;;;;;57.85;24.13;;;;;;;-139.48;100.00;61774.03;5002042;28;20048;-70
2021/11/11 08:04:48;;;;;;;50.08;23.65;;;;;;;-139.48;100.00;61774.03;5002117;28;20048;-71
2021/11/11 08:07:32;;;;;;;49.20;23.13;;;;;;;-139.48;100.00;61774.03;4988048;28;20048;-71
2021/11/11 08:10:17;;;;;;;46.75;22.85;;;;;;;-139.48;100.00;61774.03;5016491;28;20535;-71
2021/11/11 08:13:01;;;;;;;60.30;22.30;;;;;;;-139.48;100.00;61774.03;4987987;28;20048;-71
2021/11/11 08:15:45;;;;;;;42.05;20.85;;;;;;;-139.48;100.00;61774.03;5001870;28;20518;-70
2021/11/11 08:18:29;;;;;;;;;;;;;;;-139.48;100.00;61774.03;5016974;28;20064;-71
2021/11/11 08:21:13;;;;;;;40.40;21.60;;;;;;;-139.48;100.00;61774.03;5016395;28;19920;-70
2021/11/11 08:23:57;;;;;;;42.45;22.17;;;;;;;-139.48;100.00;61774.03;4987561;28;20107;-70
2021/11/11 08:26:41;;;;;;;45.58;20.77;;;;;;;-139.48;100.00;61774.03;5001122;28;20121;-71
2021/11/11 08:29:25;;;;;;;40.30;21.10;;;;;;;-139.48;100.00;61774.03;5001363;28;20064;-71
2021/11/11 08:32:10;;;;;;;43.22;21.13;;;;;;;-139.48;100.00;61774.03;5001153;28;20088;-70
2021/11/11 08:34:54;;;;;;;49.03;21.10;;;;;;;-139.48;100.00;61774.03;5001412;28;20517;-70
2021/11/11 08:37:42;;;;;;;40.00;21.55;;;;;;;-139.48;100.00;61774.03;5001031;28;20124;-69
2021/11/11 08:40:27;;;;;;;42.00;21.98;;;;;;;-139.48;100.00;61774.03;5000657;28;20510;-70
2021/11/11 08:43:11;;;;;;;46.50;20.70;;;;;;;-139.48;100.00;61774.03;5000653;28;20467;-71
2021/11/11 08:45:55;;;;;;;48.53;21.08;;;;;;;-139.48;100.00;61774.03;5000872;28;20403;-70
2021/11/11 08:48:39;;;;;;;43.33;21.33;;;;;;;-139.48;100.00;61774.03;4986964;28;20143;-70
2021/11/11 08:51:23;;;;;;;51.08;21.33;;;;;;;-139.48;100.00;61774.03;5000488;28;20469;-70
2021/11/11 08:54:07;;;;;;;41.22;21.45;;;;;;;-139.48;100.00;61774.03;5000767;28;20056;-70
2021/11/11 08:56:51;;;;;;;42.15;22.05;;;;;;;-139.48;100.00;61774.03;5015622;28;20133;-70
2021/11/11 08:59:35;;;;;;;42.13;19.92;;;;;;;-139.48;100.00;61774.03;5015562;28;20072;-70
2021/11/11 09:02:20;;;;;;;38.92;20.90;;;;;;;-139.48;100.00;61774.03;5000412;28;20052;-70
2021/11/11 09:05:04;;;;;;;48.78;22.35;;;;;;;-139.48;100.00;61774.03;5015300;28;20099;-70
2021/11/11 09:07:49;;;;;;;47.08;22.50;;;;;;;-139.48;100.00;61774.03;5000655;28;20052;-70
2021/11/11 09:10:34;;;;;;;48.80;21.70;;;;;;;-139.48;100.00;61774.03;4986826;28;20156;-70
2021/11/11 09:13:19;;;;;;;55.28;23.75;;;;;;;-139.48;100.00;61774.03;4986481;28;20056;-71
2021/11/11 09:16:05;;;;;;;54.17;22.00;;;;;;;-139.48;100.00;61774.03;4986886;28;20045;-71
2021/11/11 09:18:49;;;;;;;45.67;21.50;;;;;;;-139.48;100.00;61774.03;5000448;28;20187;-71
2021/11/11 09:21:34;;;;;;;48.03;22.98;;;;;;;-139.48;100.00;61774.03;5000057;28;20049;-70
2021/11/11 09:24:18;;;;;;;46.80;22.42;;;;;;;-139.48;100.00;61774.03;4986273;28;20526;-70
2021/11/11 09:27:02;;;;;;;49.50;24.02;;;;;;;-139.48;100.00;61774.03;5000212;28;20103;-72
2021/11/11 09:29:46;;;;;;;44.65;23.02;;;;;;;-139.48;100.00;61774.03;5000237;28;20407;-67
2021/11/11 09:32:30;;;;;;;46.10;23.52;;;;;;;-139.48;100.00;61774.03;5014985;28;20502;-67
2021/11/11 09:35:14;;;;;;;53.22;23.00;;;;;;;-139.48;100.00;61774.03;5000066;28;20064;-66
2021/11/11 09:37:59;;;;;;;49.60;22.75;;;;;;;-139.48;100.00;61774.03;4986226;28;20049;-67
2021/11/11 09:40:43;;;;;;;54.38;22.73;;;;;;;-139.48;100.00;61774.03;4999425;28;20119;-67
2021/11/11 09:43:27;;;;;;;48.83;21.98;;;;;;;-139.48;100.00;61774.03;4999885;28;20045;-67
2021/11/11 09:46:15;;;;;;;57.38;22.48;;;;;;;-139.48;100.00;61774.03;4999806;28;20053;-67
2021/11/11 09:49:00;;;;;;;44.65;22.85;;;;;;;-139.48;100.00;61774.03;5014432;28;20526;-67
2021/11/11 09:51:44;;;;;;;56.45;22.67;;;;;;;-139.48;100.00;61774.03;4999538;28;20045;-66
2021/11/11 10:00:14;;;;;;;54.63;23.40;;;;;;;-139.48;100.00;61774.03;5014046;28;20125;-67
2021/11/11 10:02:58;;;;;;;51.08;22.73;;;;;;;-139.48;100.00;61774.03;4985622;28;20184;-67
2021/11/11 10:05:42;;;;;;;57.45;23.98;;;;;;;-139.48;100.00;61774.03;4999323;28;20592;-67
2021/11/11 10:08:44;;;;;;;55.53;23.40;;;;;;;-139.48;100.00;61774.03;4999482;28;20407;-66
2021/11/11 10:11:37;;;;;;;57.45;25.13;;;;;;;-139.48;100.00;61774.03;5014045;28;20483;-67
2021/11/11 10:14:25;;;;;;;56.67;23.38;;;;;;;-139.48;100.00;61774.03;4999177;28;20407;-66
2021/11/11 10:17:11;;;;;;;51.20;23.75;;;;;;;-139.48;100.00;61774.03;4985543;28;20121;-67
2021/11/11 10:19:55;;;;;;;56.90;24.02;;;;;;;-139.48;100.00;61774.03;4999191;28;20454;-67
2021/11/11 10:22:41;;;;;;;52.60;24.75;;;;;;;-139.48;100.00;61774.03;4985204;28;20057;-66
2021/11/11 10:25:26;;;;;;;60.63;24.33;;;;;;;-139.48;100.00;61774.03;4999549;28;20048;-67
2021/11/11 10:28:09;;;;;;;51.13;24.80;;;;;;;-139.48;100.00;61774.03;5014309;28;20045;-67
2021/11/11 10:30:53;;;;;;;52.15;24.75;;;;;;;-139.48;100.00;61774.03;4985244;28;20076;-67
2021/11/11 10:33:37;;;;;;;53.55;24.75;;;;;;;-139.48;100.00;61774.03;4998922;28;20471;-67
2021/11/11 10:36:42;;;;;;;52.80;25.17;;;;;;;-139.48;100.00;61774.03;4985478;28;20044;-68
2021/11/11 10:39:32;;;;;;;48.22;24.27;;;;;;;-139.48;100.00;61774.03;4984910;28;20068;-68
2021/11/11 10:42:19;;;;;;;47.53;24.85;;;;;;;-139.48;100.00;61774.03;4998807;28;20053;-68
2021/11/11 10:45:12;;;;;;;49.88;25.08;;;;;;;-139.48;100.00;61774.03;4998880;28;20052;-69
2021/11/11 10:47:59;;;;;;;48.42;25.10;;;;;;;-139.48;100.00;61774.03;4984949;28;20076;-68
2021/11/11 10:50:52;;;;;;;51.45;26.48;;;;;;;-139.48;100.00;61774.03;4985023;28;20061;-68
2021/11/11 10:53:37;;;;;;;65.20;33.00;;;;;;;-139.48;100.00;61774.03;4998773;28;20064;-68
2021/11/11 10:56:21;;;;;;;58.53;28.77;;;;;;;-139.48;100.00;61774.03;4999045;28;20112;-69
2021/11/11 10:59:13;;;;;;;56.47;28.67;;;;;;;-139.48;100.00;61774.03;4998530;28;20099;-68
2021/11/11 11:02:02;;;;;;;54.70;28.77;;;;;;;-139.48;100.00;61774.03;4998681;28;20128;-67
2021/11/11 11:04:46;;;;;;;61.13;31.50;;;;;;;-139.48;100.00;61774.03;4998698;28;20089;-68
2021/11/11 11:07:30;;;;;;;61.60;30.52;;;;;;;-139.48;100.00;61774.03;4998762;28;20188;-68
2021/11/11 11:10:17;;;;;;;62.33;31.38;;;;;;;-139.48;100.00;61774.03;4985041;28;20096;-68
2021/11/11 11:13:07;;;;;;;61.38;30.38;;;;;;;-139.48;100.00;61774.03;5001254;28;20056;-68
2021/11/11 11:16:00;;;;;;;66.13;33.17;;;;;;;-139.48;100.00;61774.03;5002530;28;20053;-68
2021/11/11 11:18:49;;;;;;;73.53;33.92;;;;;;;-139.48;100.00;61774.03;5017453;28;20092;-68
2021/11/11 11:21:41;;;;;;;68.65;33.58;;;;;;;-139.48;100.00;61774.03;5017105;28;20048;-68
2021/11/11 11:24:28;;;;;;;69.78;33.70;;;;;;;-139.48;100.00;61774.03;5002537;28;20564;-68
2021/11/11 11:27:14;;;;;;;70.47;33.03;;;;;;;-139.48;100.00;61774.03;5017350;28;20052;-68
2021/11/11 11:30:09;;;;;;;72.78;35.75;;;;;;;-139.48;100.00;61774.03;4988799;28;20125;-68
2021/11/11 11:33:03;;;;;;;;;;;;;;;-139.48;100.00;61774.03;5017379;28;20064;-67
2021/11/11 11:35:47;;;;;;;72.65;35.53;;;;;;;-139.48;100.00;61774.03;5004128;28;19921;-68
2021/11/11 11:38:38;;;;;;;73.82;35.05;;;;;;;-139.48;100.00;61774.03;5001770;28;20052;-68
2021/11/11 11:41:27;;;;;;;75.65;36.92;;;;;;;-139.48;100.00;61774.03;5001688;28;20099;-68
2021/11/11 11:44:28;;;;;;;72.45;35.42;;;;;;;-139.48;100.00;61774.03;5001793;28;20427;-68
2021/11/11 11:47:19;;;;;;;74.57;36.67;;;;;;;-139.48;100.00;61774.03;4988211;28;20068;-69
2021/11/11 11:50:09;;;;;;;74.25;37.47;;;;;;;-139.48;100.00;61774.03;5002246;28;20096;-68
2021/11/11 11:52:58;;;;;;;75.50;36.03;;;;;;;-139.48;100.00;61774.03;5016677;28;20104;-68
2021/11/11 11:55:48;;;;;;;75.55;38.10;;;;;;;-139.48;100.00;61774.03;5002115;28;20088;-68
2021/11/11 12:40:18;;;;;;;74.22;38.00;;;;;;;-139.48;100.00;61774.03;5003527;28;20048;-66
2021/11/11 12:43:19;;;;;;;73.40;36.58;;;;;;;-139.48;100.00;61774.03;4986941;28;20156;-66
2021/11/11 12:46:04;;;;;;;84.72;38.95;;;;;;;-139.48;100.00;61774.03;5000737;28;20514;-66
2021/11/11 12:48:50;;;;;;;72.72;34.60;;;;;;;-139.48;100.00;61774.03;5000708;28;20092;-66
2021/11/11 12:51:34;;;;;;;75.93;36.70;;;;;;;-139.48;100.00;61774.03;5015647;28;20053;-66
2021/11/11 12:54:21;;;;;;;80.53;38.05;;;;;;;-139.48;100.00;61774.03;5000848;28;20084;-66
2021/11/11 12:57:06;;;;;;;77.03;36.63;;;;;;;-139.48;100.00;61774.03;5000557;28;20049;-66
2021/11/11 12:59:50;;;;;;;76.00;37.75;;;;;;;-139.48;100.00;61774.03;5000510;28;20187;-66
2021/11/11 13:02:49;;;;;;;73.95;37.80;;;;;;;-139.48;100.00;61774.03;5000353;28;20049;-66
2021/11/11 13:05:54;;;;;;;71.28;36.53;;;;;;;-139.48;100.00;61774.03;5000683;28;20041;-66
2021/11/11 13:08:56;;;;;;;78.63;35.58;;;;;;;-139.48;100.00;61774.03;5000383;28;20049;-66
2021/11/11 13:11:42;;;;;;;70.55;36.70;;;;;;;-139.48;100.00;61774.03;5000683;28;20104;-66
2021/11/11 13:14:30;;;;;;;74.78;37.22;;;;;;;-139.48;100.00;61774.03;5015254;28;20498;-65
2021/11/11 13:17:15;;;;;;;79.80;37.28;;;;;;;-139.48;100.00;61774.03;5000345;28;20510;-66
2021/11/11 13:20:04;;;;;;;85.32;40.25;;;;;;;-139.48;100.00;61774.03;5015079;28;20419;-66
2021/11/11 13:23:10;;;;;;;86.55;39.72;;;;;;;-139.48;100.00;61774.03;5000218;28;20049;-66
2021/11/11 13:26:29;;;;;;;82.07;38.08;;;;;;;-139.48;100.00;61774.03;5002782;28;20041;-65
2021/11/11 14:00:43;;;;;;;72.90;36.00;;;;;;;-139.48;100.00;61774.03;5002024;28;20053;-67
2021/11/11 16:00:03;;;;;;;73.18;33.70;;;;;;;-139.48;100.00;61774.03;4974660;28;20050;-69
2021/11/11 16:26:38;;;;;;;115.10;35.47;;;;;;;-139.48;100.00;61774.03;4977473;28;20060;-68
2021/11/11 16:29:23;;;;;;;99.20;37.50;;;;;;;-139.48;100.00;61774.03;4976094;28;20136;-69